sensor_id;sensor_type;location;lat;lon;timestamp;P1;durP1;ratioP1;P2;durP2;ratioP2
48034;SDS011;33812;46.480;6.834;2022-10-03T00:00:24;1.57;;;0.47;;
48034;SDS011;33812;46.480;6.834;2022-10-03T00:04:31;0.57;;;0.40;;
48034;SDS011;33812;46.480;6.834;2022-10-03T00:08:50;2.70;;;0.50;;
48034;SDS011;33812;46.480;6.834;2022-10-03T00:13:06;1.77;;;0.43;;
48034;SDS011;33812;46.480;6.834;2022-10-03T00:17:20;3.97;;;0.47;;
48034;SDS011;33812;46.480;6.834;2022-10-03T00:21:41;0.75;;;0.47;;
48034;SDS011;33812;46.480;6.834;2022-10-03T00:30:22;1.52;;;0.45;;
48034;SDS011;33812;46.480;6.834;2022-10-03T00:34:28;0.50;;;0.40;;
48034;SDS011;33812;46.480;6.834;2022-10-03T00:38:40;1.13;;;0.60;;
48034;SDS011;33812;46.480;6.834;2022-10-03T00:43:03;0.60;;;0.30;;
48034;SDS011;33812;46.480;6.834;2022-10-03T00:52:17;1.05;;;0.63;;
48034;SDS011;33812;46.480;6.834;2022-10-03T00:56:46;3.17;;;0.40;;
48034;SDS011;33812;46.480;6.834;2022-10-03T01:01:02;2.53;;;0.60;;
48034;SDS011;33812;46.480;6.834;2022-10-03T01:05:24;1.23;;;0.43;;
48034;SDS011;33812;46.480;6.834;2022-10-03T01:09:44;1.42;;;0.30;;
48034;SDS011;33812;46.480;6.834;2022-10-03T01:13:58;0.47;;;0.40;;
48034;SDS011;33812;46.480;6.834;2022-10-03T01:18:14;1.35;;;0.30;;
48034;SDS011;33812;46.480;6.834;2022-10-03T01:22:34;2.92;;;0.40;;
48034;SDS011;33812;46.480;6.834;2022-10-03T01:26:58;3.17;;;0.43;;
48034;SDS011;33812;46.480;6.834;2022-10-03T01:31:06;1.75;;;0.40;;
48034;SDS011;33812;46.480;6.834;2022-10-03T01:35:13;1.00;;;0.40;;
48034;SDS011;33812;46.480;6.834;2022-10-03T01:39:31;2.03;;;0.88;;
48034;SDS011;33812;46.480;6.834;2022-10-03T01:43:43;3.25;;;0.80;;
48034;SDS011;33812;46.480;6.834;2022-10-03T01:47:56;0.90;;;0.40;;
48034;SDS011;33812;46.480;6.834;2022-10-03T01:52:02;0.80;;;0.40;;
48034;SDS011;33812;46.480;6.834;2022-10-03T01:56:07;1.13;;;0.50;;
48034;SDS011;33812;46.480;6.834;2022-10-03T02:00:13;0.60;;;0.40;;
48034;SDS011;33812;46.480;6.834;2022-10-03T02:04:27;1.08;;;0.30;;
48034;SDS011;33812;46.480;6.834;2022-10-03T02:08:42;0.45;;;0.40;;
48034;SDS011;33812;46.480;6.834;2022-10-03T02:12:55;0.65;;;0.47;;
48034;SDS011;33812;46.480;6.834;2022-10-03T02:17:05;1.42;;;0.30;;
48034;SDS011;33812;46.480;6.834;2022-10-03T02:21:18;1.23;;;0.60;;
48034;SDS011;33812;46.480;6.834;2022-10-03T02:25:26;1.23;;;0.50;;
48034;SDS011;33812;46.480;6.834;2022-10-03T02:29:49;0.50;;;0.45;;
48034;SDS011;33812;46.480;6.834;2022-10-03T02:39:14;5.07;;;0.52;;
48034;SDS011;33812;46.480;6.834;2022-10-03T02:43:45;1.63;;;0.30;;
48034;SDS011;33812;46.480;6.834;2022-10-03T02:48:24;1.70;;;0.57;;
48034;SDS011;33812;46.480;6.834;2022-10-03T02:52:52;0.40;;;0.15;;
48034;SDS011;33812;46.480;6.834;2022-10-03T02:57:39;0.85;;;0.30;;
48034;SDS011;33812;46.480;6.834;2022-10-03T03:02:05;0.40;;;0.32;;
48034;SDS011;33812;46.480;6.834;2022-10-03T03:11:23;2.63;;;0.52;;
48034;SDS011;33812;46.480;6.834;2022-10-03T03:16:12;1.20;;;0.30;;
48034;SDS011;33812;46.480;6.834;2022-10-03T03:20:38;1.60;;;0.30;;
48034;SDS011;33812;46.480;6.834;2022-10-03T03:25:03;1.02;;;0.30;;
48034;SDS011;33812;46.480;6.834;2022-10-03T03:29:15;2.53;;;0.32;;
48034;SDS011;33812;46.480;6.834;2022-10-03T03:33:32;1.90;;;0.55;;
48034;SDS011;33812;46.480;6.834;2022-10-03T03:37:42;1.08;;;0.40;;
48034;SDS011;33812;46.480;6.834;2022-10-03T03:41:55;1.95;;;0.40;;
48034;SDS011;33812;46.480;6.834;2022-10-03T03:46:15;0.32;;;0.28;;
48034;SDS011;33812;46.480;6.834;2022-10-03T03:50:35;1.95;;;0.30;;
48034;SDS011;33812;46.480;6.834;2022-10-03T03:54:59;3.08;;;0.32;;
48034;SDS011;33812;46.480;6.834;2022-10-03T03:59:20;0.40;;;0.30;;
48034;SDS011;33812;46.480;6.834;2022-10-03T04:03:33;0.43;;;0.20;;
48034;SDS011;33812;46.480;6.834;2022-10-03T04:07:51;0.75;;;0.40;;
48034;SDS011;33812;46.480;6.834;2022-10-03T04:12:13;0.38;;;0.30;;
48034;SDS011;33812;46.480;6.834;2022-10-03T04:16:30;0.52;;;0.22;;
48034;SDS011;33812;46.480;6.834;2022-10-03T04:21:08;0.30;;;0.20;;
48034;SDS011;33812;46.480;6.834;2022-10-03T04:25:33;1.58;;;0.60;;
48034;SDS011;33812;46.480;6.834;2022-10-03T04:29:48;0.30;;;0.20;;
48034;SDS011;33812;46.480;6.834;2022-10-03T04:34:06;1.02;;;0.40;;
48034;SDS011;33812;46.480;6.834;2022-10-03T04:38:20;0.70;;;0.30;;
48034;SDS011;33812;46.480;6.834;2022-10-03T04:42:44;5.38;;;0.20;;
48034;SDS011;33812;46.480;6.834;2022-10-03T04:46:53;0.82;;;0.28;;
48034;SDS011;33812;46.480;6.834;2022-10-03T04:51:02;2.38;;;0.20;;
48034;SDS011;33812;46.480;6.834;2022-10-03T04:55:14;3.45;;;0.60;;
48034;SDS011;33812;46.480;6.834;2022-10-03T05:03:53;3.50;;;0.40;;
48034;SDS011;33812;46.480;6.834;2022-10-03T05:08:11;9.93;;;0.82;;
48034;SDS011;33812;46.480;6.834;2022-10-03T05:12:24;1.02;;;0.50;;
48034;SDS011;33812;46.480;6.834;2022-10-03T05:16:34;2.38;;;0.40;;
48034;SDS011;33812;46.480;6.834;2022-10-03T05:20:51;3.15;;;0.40;;
48034;SDS011;33812;46.480;6.834;2022-10-03T05:24:57;2.85;;;0.50;;
48034;SDS011;33812;46.480;6.834;2022-10-03T05:29:13;3.90;;;0.30;;
48034;SDS011;33812;46.480;6.834;2022-10-03T05:33:32;10.98;;;0.60;;
48034;SDS011;33812;46.480;6.834;2022-10-03T05:37:54;10.25;;;0.60;;
48034;SDS011;33812;46.480;6.834;2022-10-03T05:42:31;4.78;;;0.40;;
48034;SDS011;33812;46.480;6.834;2022-10-03T05:46:45;13.57;;;0.63;;
48034;SDS011;33812;46.480;6.834;2022-10-03T05:51:04;2.47;;;0.50;;
48034;SDS011;33812;46.480;6.834;2022-10-03T05:55:16;1.43;;;0.40;;
48034;SDS011;33812;46.480;6.834;2022-10-03T05:59:34;3.25;;;0.57;;
48034;SDS011;33812;46.480;6.834;2022-10-03T06:03:56;2.97;;;0.50;;
48034;SDS011;33812;46.480;6.834;2022-10-03T06:08:21;4.65;;;0.52;;
48034;SDS011;33812;46.480;6.834;2022-10-03T06:12:45;7.45;;;0.50;;
48034;SDS011;33812;46.480;6.834;2022-10-03T06:16:59;1.45;;;0.50;;
48034;SDS011;33812;46.480;6.834;2022-10-03T06:21:25;4.22;;;0.73;;
48034;SDS011;33812;46.480;6.834;2022-10-03T06:25:58;5.13;;;0.77;;
48034;SDS011;33812;46.480;6.834;2022-10-03T06:30:24;11.32;;;1.30;;
48034;SDS011;33812;46.480;6.834;2022-10-03T06:39:28;3.97;;;0.90;;
48034;SDS011;33812;46.480;6.834;2022-10-03T06:43:58;7.78;;;0.77;;
48034;SDS011;33812;46.480;6.834;2022-10-03T06:48:17;9.30;;;1.05;;
48034;SDS011;33812;46.480;6.834;2022-10-03T06:52:35;11.63;;;1.13;;
48034;SDS011;33812;46.480;6.834;2022-10-03T07:06:06;7.60;;;1.10;;
48034;SDS011;33812;46.480;6.834;2022-10-03T07:10:25;6.55;;;1.05;;
48034;SDS011;33812;46.480;6.834;2022-10-03T07:19:29;0.77;;;0.50;;
48034;SDS011;33812;46.480;6.834;2022-10-03T07:28:55;1.92;;;0.65;;
48034;SDS011;33812;46.480;6.834;2022-10-03T07:33:25;3.58;;;0.70;;
48034;SDS011;33812;46.480;6.834;2022-10-03T07:37:58;2.92;;;0.60;;
48034;SDS011;33812;46.480;6.834;2022-10-03T07:43:03;3.00;;;0.73;;
48034;SDS011;33812;46.480;6.834;2022-10-03T07:47:57;2.70;;;0.50;;
48034;SDS011;33812;46.480;6.834;2022-10-03T07:52:25;1.58;;;0.63;;
48034;SDS011;33812;46.480;6.834;2022-10-03T08:01:35;2.78;;;0.55;;
48034;SDS011;33812;46.480;6.834;2022-10-03T08:10:37;1.08;;;0.50;;
48034;SDS011;33812;46.480;6.834;2022-10-03T08:15:07;2.27;;;0.73;;
48034;SDS011;33812;46.480;6.834;2022-10-03T08:19:15;2.10;;;0.65;;
48034;SDS011;33812;46.480;6.834;2022-10-03T08:32:58;2.38;;;0.70;;
48034;SDS011;33812;46.480;6.834;2022-10-03T08:37:28;3.83;;;0.70;;
48034;SDS011;33812;46.480;6.834;2022-10-03T08:46:39;6.85;;;0.90;;
48034;SDS011;33812;46.480;6.834;2022-10-03T08:51:25;2.03;;;0.70;;
48034;SDS011;33812;46.480;6.834;2022-10-03T09:00:09;1.35;;;0.47;;
48034;SDS011;33812;46.480;6.834;2022-10-03T09:04:25;6.40;;;0.88;;
48034;SDS011;33812;46.480;6.834;2022-10-03T09:09:04;1.20;;;0.47;;
48034;SDS011;33812;46.480;6.834;2022-10-03T09:13:38;3.58;;;0.80;;
48034;SDS011;33812;46.480;6.834;2022-10-03T09:18:08;4.05;;;0.70;;
48034;SDS011;33812;46.480;6.834;2022-10-03T09:27:23;1.05;;;0.52;;
48034;SDS011;33812;46.480;6.834;2022-10-03T09:55:23;2.42;;;0.70;;
48034;SDS011;33812;46.480;6.834;2022-10-03T09:59:39;1.20;;;0.75;;
48034;SDS011;33812;46.480;6.834;2022-10-03T10:23:18;1.27;;;0.65;;
48034;SDS011;33812;46.480;6.834;2022-10-03T10:32:40;4.13;;;0.55;;
48034;SDS011;33812;46.480;6.834;2022-10-03T10:42:06;4.25;;;0.65;;
48034;SDS011;33812;46.480;6.834;2022-10-03T10:47:00;3.28;;;0.82;;
48034;SDS011;33812;46.480;6.834;2022-10-03T10:51:24;3.60;;;1.10;;
48034;SDS011;33812;46.480;6.834;2022-10-03T11:01:10;2.92;;;0.90;;
48034;SDS011;33812;46.480;6.834;2022-10-03T11:24:15;3.35;;;0.70;;
48034;SDS011;33812;46.480;6.834;2022-10-03T11:33:25;1.67;;;0.77;;
48034;SDS011;33812;46.480;6.834;2022-10-03T11:37:54;2.47;;;0.88;;
48034;SDS011;33812;46.480;6.834;2022-10-03T11:42:09;6.10;;;0.90;;
48034;SDS011;33812;46.480;6.834;2022-10-03T11:46:21;6.10;;;1.10;;
48034;SDS011;33812;46.480;6.834;2022-10-03T11:50:41;1.27;;;0.77;;
48034;SDS011;33812;46.480;6.834;2022-10-03T11:54:46;10.25;;;0.90;;
48034;SDS011;33812;46.480;6.834;2022-10-03T11:58:58;6.90;;;0.80;;
48034;SDS011;33812;46.480;6.834;2022-10-03T12:03:26;5.13;;;0.88;;
48034;SDS011;33812;46.480;6.834;2022-10-03T12:07:36;2.17;;;0.68;;
48034;SDS011;33812;46.480;6.834;2022-10-03T12:12:02;4.55;;;0.70;;
48034;SDS011;33812;46.480;6.834;2022-10-03T12:16:17;2.22;;;0.63;;
48034;SDS011;33812;46.480;6.834;2022-10-03T12:20:27;1.30;;;0.38;;
48034;SDS011;33812;46.480;6.834;2022-10-03T12:24:38;5.10;;;0.70;;
48034;SDS011;33812;46.480;6.834;2022-10-03T12:28:43;1.83;;;0.50;;
48034;SDS011;33812;46.480;6.834;2022-10-03T12:32:55;0.75;;;0.45;;
48034;SDS011;33812;46.480;6.834;2022-10-03T12:37:14;1.45;;;0.57;;
48034;SDS011;33812;46.480;6.834;2022-10-03T12:41:41;3.42;;;0.50;;
48034;SDS011;33812;46.480;6.834;2022-10-03T12:45:53;2.75;;;0.70;;
48034;SDS011;33812;46.480;6.834;2022-10-03T12:50:03;1.65;;;0.45;;
48034;SDS011;33812;46.480;6.834;2022-10-03T12:54:18;0.38;;;0.35;;
48034;SDS011;33812;46.480;6.834;2022-10-03T12:58:34;0.35;;;0.30;;
48034;SDS011;33812;46.480;6.834;2022-10-03T13:03:00;0.88;;;0.30;;
48034;SDS011;33812;46.480;6.834;2022-10-03T13:07:20;3.30;;;0.40;;
48034;SDS011;33812;46.480;6.834;2022-10-03T13:11:35;3.97;;;0.25;;
48034;SDS011;33812;46.480;6.834;2022-10-03T13:20:22;3.70;;;0.32;;
48034;SDS011;33812;46.480;6.834;2022-10-03T13:24:31;1.02;;;0.40;;
48034;SDS011;33812;46.480;6.834;2022-10-03T13:28:44;2.22;;;0.47;;
48034;SDS011;33812;46.480;6.834;2022-10-03T13:32:58;35.58;;;3.28;;
48034;SDS011;33812;46.480;6.834;2022-10-03T13:37:07;7.25;;;1.08;;
48034;SDS011;33812;46.480;6.834;2022-10-03T13:41:24;13.55;;;1.38;;
48034;SDS011;33812;46.480;6.834;2022-10-03T13:45:30;13.05;;;1.27;;
48034;SDS011;33812;46.480;6.834;2022-10-03T13:49:34;8.27;;;0.77;;
48034;SDS011;33812;46.480;6.834;2022-10-03T13:53:49;4.60;;;0.90;;
48034;SDS011;33812;46.480;6.834;2022-10-03T13:58:04;7.85;;;0.90;;
48034;SDS011;33812;46.480;6.834;2022-10-03T14:02:38;4.78;;;0.82;;
48034;SDS011;33812;46.480;6.834;2022-10-03T14:06:47;11.77;;;1.15;;
48034;SDS011;33812;46.480;6.834;2022-10-03T14:11:00;16.55;;;2.40;;
48034;SDS011;33812;46.480;6.834;2022-10-03T14:15:30;2.53;;;1.17;;
48034;SDS011;33812;46.480;6.834;2022-10-03T14:19:54;3.58;;;0.68;;
48034;SDS011;33812;46.480;6.834;2022-10-03T14:24:11;3.60;;;0.88;;
48034;SDS011;33812;46.480;6.834;2022-10-03T14:28:27;3.97;;;0.63;;
48034;SDS011;33812;46.480;6.834;2022-10-03T14:32:37;6.78;;;0.70;;
48034;SDS011;33812;46.480;6.834;2022-10-03T14:36:48;5.65;;;0.70;;
48034;SDS011;33812;46.480;6.834;2022-10-03T14:40:58;3.83;;;0.55;;
48034;SDS011;33812;46.480;6.834;2022-10-03T14:45:05;14.38;;;0.82;;
48034;SDS011;33812;46.480;6.834;2022-10-03T14:49:15;4.43;;;0.50;;
48034;SDS011;33812;46.480;6.834;2022-10-03T14:53:20;3.30;;;0.60;;
48034;SDS011;33812;46.480;6.834;2022-10-03T14:57:32;4.15;;;0.75;;
48034;SDS011;33812;46.480;6.834;2022-10-03T15:01:37;4.57;;;0.63;;
48034;SDS011;33812;46.480;6.834;2022-10-03T15:05:58;2.45;;;0.57;;
48034;SDS011;33812;46.480;6.834;2022-10-03T15:10:04;1.10;;;0.50;;
48034;SDS011;33812;46.480;6.834;2022-10-03T15:14:11;3.17;;;0.88;;
48034;SDS011;33812;46.480;6.834;2022-10-03T15:18:13;3.45;;;0.90;;
48034;SDS011;33812;46.480;6.834;2022-10-03T15:22:24;2.63;;;0.60;;
48034;SDS011;33812;46.480;6.834;2022-10-03T15:26:31;2.40;;;0.70;;
48034;SDS011;33812;46.480;6.834;2022-10-03T15:30:37;14.48;;;1.33;;
48034;SDS011;33812;46.480;6.834;2022-10-03T15:34:40;9.70;;;1.43;;
48034;SDS011;33812;46.480;6.834;2022-10-03T15:38:49;10.23;;;0.73;;
48034;SDS011;33812;46.480;6.834;2022-10-03T15:43:00;4.25;;;0.80;;
48034;SDS011;33812;46.480;6.834;2022-10-03T15:47:07;9.50;;;1.08;;
48034;SDS011;33812;46.480;6.834;2022-10-03T15:51:15;13.02;;;1.27;;
48034;SDS011;33812;46.480;6.834;2022-10-03T15:55:23;5.07;;;1.02;;
48034;SDS011;33812;46.480;6.834;2022-10-03T15:59:30;7.78;;;0.85;;
48034;SDS011;33812;46.480;6.834;2022-10-03T16:03:35;3.70;;;0.60;;
48034;SDS011;33812;46.480;6.834;2022-10-03T16:07:45;4.20;;;0.80;;
48034;SDS011;33812;46.480;6.834;2022-10-03T16:12:01;6.78;;;0.77;;
48034;SDS011;33812;46.480;6.834;2022-10-03T16:16:15;2.92;;;0.65;;
48034;SDS011;33812;46.480;6.834;2022-10-03T16:20:20;5.97;;;1.00;;
48034;SDS011;33812;46.480;6.834;2022-10-03T16:24:26;1.33;;;0.90;;
48034;SDS011;33812;46.480;6.834;2022-10-03T16:28:36;7.25;;;0.70;;
48034;SDS011;33812;46.480;6.834;2022-10-03T16:32:42;1.67;;;0.82;;
48034;SDS011;33812;46.480;6.834;2022-10-03T16:36:50;2.38;;;0.70;;
48034;SDS011;33812;46.480;6.834;2022-10-03T16:40:56;2.40;;;0.70;;
48034;SDS011;33812;46.480;6.834;2022-10-03T16:45:02;5.88;;;0.90;;
48034;SDS011;33812;46.480;6.834;2022-10-03T16:49:08;6.40;;;1.00;;
48034;SDS011;33812;46.480;6.834;2022-10-03T16:53:29;7.70;;;2.47;;
48034;SDS011;33812;46.480;6.834;2022-10-03T16:57:36;8.93;;;2.90;;
48034;SDS011;33812;46.480;6.834;2022-10-03T17:01:47;10.52;;;3.85;;
48034;SDS011;33812;46.480;6.834;2022-10-03T17:05:51;7.80;;;2.45;;
48034;SDS011;33812;46.480;6.834;2022-10-03T17:09:56;95.47;;;36.83;;
48034;SDS011;33812;46.480;6.834;2022-10-03T17:14:00;206.88;;;83.20;;
48034;SDS011;33812;46.480;6.834;2022-10-03T17:18:10;263.83;;;107.68;;
48034;SDS011;33812;46.480;6.834;2022-10-03T17:22:19;191.88;;;78.28;;
48034;SDS011;33812;46.480;6.834;2022-10-03T17:26:24;141.57;;;56.83;;
48034;SDS011;33812;46.480;6.834;2022-10-03T17:30:33;147.48;;;60.28;;
48034;SDS011;33812;46.480;6.834;2022-10-03T17:34:46;162.15;;;64.05;;
48034;SDS011;33812;46.480;6.834;2022-10-03T17:38:55;128.60;;;51.33;;
48034;SDS011;33812;46.480;6.834;2022-10-03T17:43:04;130.75;;;55.42;;
48034;SDS011;33812;46.480;6.834;2022-10-03T17:47:15;92.15;;;40.80;;
48034;SDS011;33812;46.480;6.834;2022-10-03T17:51:33;121.75;;;52.55;;
48034;SDS011;33812;46.480;6.834;2022-10-03T17:55:39;103.22;;;43.42;;
48034;SDS011;33812;46.480;6.834;2022-10-03T17:59:42;118.57;;;48.47;;
48034;SDS011;33812;46.480;6.834;2022-10-03T18:03:52;92.70;;;41.17;;
48034;SDS011;33812;46.480;6.834;2022-10-03T18:07:59;105.63;;;42.10;;
48034;SDS011;33812;46.480;6.834;2022-10-03T18:12:10;35.35;;;18.25;;
48034;SDS011;33812;46.480;6.834;2022-10-03T18:16:19;14.18;;;6.07;;
48034;SDS011;33812;46.480;6.834;2022-10-03T18:20:31;10.73;;;2.65;;
48034;SDS011;33812;46.480;6.834;2022-10-03T18:24:47;10.02;;;3.13;;
48034;SDS011;33812;46.480;6.834;2022-10-03T18:28:56;8.18;;;3.58;;
48034;SDS011;33812;46.480;6.834;2022-10-03T18:33:10;11.65;;;3.38;;
48034;SDS011;33812;46.480;6.834;2022-10-03T18:37:16;6.25;;;3.30;;
48034;SDS011;33812;46.480;6.834;2022-10-03T18:41:55;9.90;;;3.28;;
48034;SDS011;33812;46.480;6.834;2022-10-03T18:46:01;20.70;;;4.15;;
48034;SDS011;33812;46.480;6.834;2022-10-03T18:50:12;6.85;;;3.35;;
48034;SDS011;33812;46.480;6.834;2022-10-03T18:54:27;20.60;;;4.55;;
48034;SDS011;33812;46.480;6.834;2022-10-03T18:58:38;12.57;;;3.33;;
48034;SDS011;33812;46.480;6.834;2022-10-03T19:02:46;9.70;;;3.80;;
48034;SDS011;33812;46.480;6.834;2022-10-03T19:06:52;15.98;;;3.28;;
48034;SDS011;33812;46.480;6.834;2022-10-03T19:10:56;12.45;;;3.47;;
48034;SDS011;33812;46.480;6.834;2022-10-03T19:15:07;13.77;;;3.30;;
48034;SDS011;33812;46.480;6.834;2022-10-03T19:19:21;8.40;;;2.72;;
48034;SDS011;33812;46.480;6.834;2022-10-03T19:23:28;7.82;;;2.55;;
48034;SDS011;33812;46.480;6.834;2022-10-03T19:27:39;7.50;;;2.60;;
48034;SDS011;33812;46.480;6.834;2022-10-03T19:31:53;6.53;;;2.63;;
48034;SDS011;33812;46.480;6.834;2022-10-03T19:36:02;8.07;;;2.08;;
48034;SDS011;33812;46.480;6.834;2022-10-03T19:40:21;3.60;;;1.77;;
48034;SDS011;33812;46.480;6.834;2022-10-03T19:44:33;3.92;;;1.83;;
48034;SDS011;33812;46.480;6.834;2022-10-03T19:48:36;7.13;;;2.55;;
48034;SDS011;33812;46.480;6.834;2022-10-03T19:52:44;6.25;;;1.77;;
48034;SDS011;33812;46.480;6.834;2022-10-03T19:56:45;4.72;;;1.75;;
48034;SDS011;33812;46.480;6.834;2022-10-03T20:00:48;6.47;;;1.63;;
48034;SDS011;33812;46.480;6.834;2022-10-03T20:04:54;3.83;;;1.88;;
48034;SDS011;33812;46.480;6.834;2022-10-03T20:08:58;2.75;;;1.50;;
48034;SDS011;33812;46.480;6.834;2022-10-03T20:13:02;6.55;;;1.45;;
48034;SDS011;33812;46.480;6.834;2022-10-03T20:17:06;9.75;;;1.67;;
48034;SDS011;33812;46.480;6.834;2022-10-03T20:21:16;5.13;;;1.42;;
48034;SDS011;33812;46.480;6.834;2022-10-03T20:25:21;4.05;;;1.40;;
48034;SDS011;33812;46.480;6.834;2022-10-03T20:29:30;1.98;;;1.10;;
48034;SDS011;33812;46.480;6.834;2022-10-03T20:33:37;7.35;;;1.30;;
48034;SDS011;33812;46.480;6.834;2022-10-03T20:37:43;4.72;;;2.97;;
48034;SDS011;33812;46.480;6.834;2022-10-03T20:41:52;3.28;;;1.65;;
48034;SDS011;33812;46.480;6.834;2022-10-03T20:46:02;6.22;;;1.40;;
48034;SDS011;33812;46.480;6.834;2022-10-03T20:50:17;2.03;;;1.25;;
48034;SDS011;33812;46.480;6.834;2022-10-03T20:54:26;2.05;;;1.38;;
48034;SDS011;33812;46.480;6.834;2022-10-03T20:58:34;4.30;;;1.80;;
48034;SDS011;33812;46.480;6.834;2022-10-03T21:02:42;7.85;;;1.40;;
48034;SDS011;33812;46.480;6.834;2022-10-03T21:06:51;10.65;;;1.50;;
48034;SDS011;33812;46.480;6.834;2022-10-03T21:10:59;3.78;;;1.27;;
48034;SDS011;33812;46.480;6.834;2022-10-03T21:15:04;4.93;;;1.77;;
48034;SDS011;33812;46.480;6.834;2022-10-03T21:19:14;4.65;;;1.27;;
48034;SDS011;33812;46.480;6.834;2022-10-03T21:27:24;3.17;;;1.15;;
48034;SDS011;33812;46.480;6.834;2022-10-03T21:31:29;4.05;;;1.30;;
48034;SDS011;33812;46.480;6.834;2022-10-03T21:35:39;2.88;;;1.20;;
48034;SDS011;33812;46.480;6.834;2022-10-03T21:39:44;7.43;;;1.42;;
48034;SDS011;33812;46.480;6.834;2022-10-03T21:44:01;2.30;;;1.30;;
48034;SDS011;33812;46.480;6.834;2022-10-03T21:48:08;2.40;;;1.17;;
48034;SDS011;33812;46.480;6.834;2022-10-03T21:52:24;3.30;;;1.48;;
48034;SDS011;33812;46.480;6.834;2022-10-03T21:56:35;7.68;;;2.10;;
48034;SDS011;33812;46.480;6.834;2022-10-03T22:00:58;3.95;;;1.40;;
48034;SDS011;33812;46.480;6.834;2022-10-03T22:05:11;1.88;;;1.20;;
48034;SDS011;33812;46.480;6.834;2022-10-03T22:09:21;1.95;;;1.70;;
48034;SDS011;33812;46.480;6.834;2022-10-03T22:13:23;3.03;;;2.10;;
48034;SDS011;33812;46.480;6.834;2022-10-03T22:17:33;3.55;;;2.20;;
48034;SDS011;33812;46.480;6.834;2022-10-03T22:21:41;2.63;;;1.50;;
48034;SDS011;33812;46.480;6.834;2022-10-03T22:25:57;3.17;;;1.63;;
48034;SDS011;33812;46.480;6.834;2022-10-03T22:30:08;2.20;;;1.20;;
48034;SDS011;33812;46.480;6.834;2022-10-03T22:34:18;1.80;;;1.17;;
48034;SDS011;33812;46.480;6.834;2022-10-03T22:38:28;2.10;;;1.10;;
48034;SDS011;33812;46.480;6.834;2022-10-03T22:42:34;3.05;;;1.05;;
48034;SDS011;33812;46.480;6.834;2022-10-03T22:46:42;2.78;;;1.17;;
48034;SDS011;33812;46.480;6.834;2022-10-03T22:54:50;2.15;;;1.17;;
48034;SDS011;33812;46.480;6.834;2022-10-03T22:58:53;2.22;;;1.20;;
48034;SDS011;33812;46.480;6.834;2022-10-03T23:02:56;2.78;;;1.30;;
48034;SDS011;33812;46.480;6.834;2022-10-03T23:11:35;1.50;;;1.02;;
48034;SDS011;33812;46.480;6.834;2022-10-03T23:15:40;1.48;;;1.10;;
48034;SDS011;33812;46.480;6.834;2022-10-03T23:19:47;2.00;;;1.20;;
48034;SDS011;33812;46.480;6.834;2022-10-03T23:23:57;3.10;;;1.20;;
48034;SDS011;33812;46.480;6.834;2022-10-03T23:28:07;2.13;;;1.45;;
48034;SDS011;33812;46.480;6.834;2022-10-03T23:32:20;1.30;;;0.88;;
48034;SDS011;33812;46.480;6.834;2022-10-03T23:36:58;1.85;;;0.90;;
48034;SDS011;33812;46.480;6.834;2022-10-03T23:41:03;1.77;;;1.00;;
48034;SDS011;33812;46.480;6.834;2022-10-03T23:45:09;2.08;;;1.10;;
48034;SDS011;33812;46.480;6.834;2022-10-03T23:49:14;1.40;;;0.90;;
48034;SDS011;33812;46.480;6.834;2022-10-03T23:53:18;2.05;;;0.80;;
48034;SDS011;33812;46.480;6.834;2022-10-03T23:57:28;2.70;;;1.10;;
